Time;durP1;ratioP1;P1;durP2;ratioP2;P2;SDS_P1;SDS_P2;PMS_P1;PMS_P2;Temp;Humidity;BMP_temperature;BMP_pressure;BME280_temperature;BME280_humidity;BME280_pressure;Samples;Min_cycle;Max_cycle;Signal;HPM_P1;HPM_P2
2023/10/06 00:08:00;;;;;;;5.77;2.10;;;;;;;12.60;61.99;101494.94;21062461;28;20435;-81
2023/10/06 00:18:07;;;;;;;9.00;2.03;;;;;;;12.21;63.40;101492.59;21075088;28;20206;-83
2023/10/06 00:28:16;;;;;;;4.83;1.83;;;;;;;12.77;62.34;101499.94;21087573;28;20250;-80
2023/10/06 00:38:21;;;;;;;6.37;2.43;;;;;;;12.34;63.76;101490.97;21072634;28;20206;-80
2023/10/06 00:48:22;;;;;;;7.88;2.33;;;;;;;12.06;64.93;101490.09;21084213;28;20236;-79
2023/10/06 00:58:28;;;;;;;7.75;3.05;;;;;;;12.48;63.65;101486.13;21070849;28;20317;-80
2023/10/06 01:08:31;;;;;;;7.00;2.40;;;;;;;12.19;64.83;101466.69;21078215;28;20229;-82
2023/10/06 01:18:35;;;;;;;4.97;2.10;;;;;;;11.98;65.13;101454.13;21063720;28;20206;-82
2023/10/06 01:28:42;;;;;;;6.80;2.83;;;;;;;12.37;63.75;101447.97;21053891;28;20518;-81
2023/10/06 01:38:44;;;;;;;7.33;2.40;;;;;;;12.36;63.82;101425.69;21068906;28;20320;-80
2023/10/06 01:48:47;;;;;;;4.55;2.10;;;;;;;11.69;66.33;101428.19;21067312;28;20226;-80
2023/10/06 01:58:51;;;;;;;8.27;2.17;;;;;;;12.21;64.39;101429.69;21034436;28;20230;-80
2023/10/06 02:08:54;;;;;;;3.83;1.80;;;;;;;12.03;64.11;101428.63;21034855;28;20258;-80
2023/10/06 02:18:56;;;;;;;8.80;2.10;;;;;;;11.57;66.13;101418.16;21013440;28;20284;-80
2023/10/06 02:28:59;;;;;;;7.83;2.07;;;;;;;11.99;65.50;101415.47;21063440;28;20219;-79
2023/10/06 02:39:06;;;;;;;4.60;2.07;;;;;;;11.57;65.83;101403.25;21057712;28;20282;-78
2023/10/06 02:49:09;;;;;;;5.47;1.80;;;;;;;11.60;65.41;101410.28;21080539;28;20226;-79
2023/10/06 02:59:21;;;;;;;5.20;2.00;;;;;;;11.86;64.96;101417.13;21081607;28;20230;-84
2023/10/06 03:09:36;;;;;;;5.07;1.83;;;;;;;11.82;64.54;101410.44;21065741;28;20550;-79
2023/10/06 03:19:40;;;;;;;3.33;1.60;;;;;;;11.55;65.03;101408.38;21053930;28;20668;-83
2023/10/06 03:29:53;;;;;;;8.27;2.43;;;;;;;11.75;64.34;101410.00;21062525;28;20226;-88
2023/10/06 03:39:55;;;;;;;2.93;1.63;;;;;;;11.69;64.68;101422.53;21089714;28;20198;-80
2023/10/06 03:49:58;;;;;;;6.70;2.00;;;;;;;11.62;64.63;101419.28;21071412;28;20230;-80
2023/10/06 04:00:00;;;;;;;4.40;1.73;;;;;;;11.11;65.98;101406.03;21067486;28;20199;-78
2023/10/06 04:10:07;;;;;;;8.03;2.20;;;;;;;11.27;65.98;101399.00;21083141;28;20226;-85
2023/10/06 04:20:13;;;;;;;6.10;1.70;;;;;;;11.26;65.79;101396.47;21054856;28;20222;-80
2023/10/06 04:30:18;;;;;;;7.57;2.27;;;;;;;10.98;66.59;101376.66;21069830;28;20310;-83
2023/10/06 04:40:20;;;;;;;4.00;2.10;;;;;;;11.25;65.74;101361.84;21058164;28;20207;-80
2023/10/06 04:50:24;;;;;;;5.60;2.10;;;;;;;11.26;65.52;101371.97;21075755;28;20233;-80
2023/10/06 05:00:27;;;;;;;5.63;2.10;;;;;;;11.00;66.63;101351.84;21072095;28;20512;-80
2023/10/06 05:10:30;;;;;;;4.47;1.87;;;;;;;10.81;66.60;101345.38;21061408;28;20222;-81
2023/10/06 05:20:33;;;;;;;5.20;2.13;;;;;;;11.36;64.29;101346.41;21059032;28;20208;-80
2023/10/06 05:30:37;;;;;;;2.57;1.80;;;;;;;10.90;65.79;101332.31;21062807;28;20226;-83
2023/10/06 05:40:40;;;;;;;5.80;1.70;;;;;;;10.85;65.99;101344.47;21076099;28;20195;-80
2023/10/06 05:50:43;;;;;;;5.37;1.80;;;;;;;11.05;65.29;101339.63;21058035;28;20241;-85
2023/10/06 06:00:50;;;;;;;6.80;2.17;;;;;;;11.14;65.58;101354.72;21042370;28;20226;-83
2023/10/06 06:10:53;;;;;;;3.50;1.70;;;;;;;11.07;65.26;101366.34;21073650;28;20225;-80
2023/10/06 06:20:55;;;;;;;2.27;1.60;;;;;;;11.51;63.62;101360.22;21065128;28;20190;-86
2023/10/06 06:31:03;;;;;;;5.00;1.53;;;;;;;11.73;62.98;101378.44;21054296;28;20218;-83
2023/10/06 06:41:05;;;;;;;5.93;1.73;;;;;;;11.73;62.21;101386.91;21046865;28;20460;-80
2023/10/06 06:51:10;;;;;;;4.23;1.80;;;;;;;12.18;61.15;101397.28;21069651;28;20222;-81
2023/10/06 07:01:14;;;;;;;7.23;2.97;;;;;;;12.44;60.31;101389.13;21065844;28;20340;-80
2023/10/06 07:11:17;;;;;;;5.00;2.13;;;;;;;11.97;61.75;101384.75;21049243;28;20222;-84
2023/10/06 07:21:19;;;;;;;3.90;1.90;;;;;;;12.26;61.48;101354.22;21064673;28;20281;-80
2023/10/06 07:31:24;;;;;;;3.73;1.60;;;;;;;12.20;61.47;101371.59;21081738;28;20681;-83
2023/10/06 07:41:27;;;;;;;6.30;1.85;;;;;;;12.90;58.93;101359.84;21078196;28;20206;-79
2023/10/06 07:51:33;;;;;;;7.60;1.40;;;;;;;12.98;59.53;101359.91;21082960;28;20279;-79
2023/10/06 08:01:35;;;;;;;4.78;1.60;;;;;;;12.73;60.13;101359.69;21079459;28;20285;-81
2023/10/06 08:11:40;;;;;;;4.32;1.55;;;;;;;12.76;59.22;101362.69;21066897;28;20225;-86
2023/10/06 08:21:42;;;;;;;7.60;1.60;;;;;;;13.41;57.03;101379.19;21066798;28;20593;-87
2023/10/06 08:31:45;;;;;;;5.72;1.77;;;;;;;13.71;56.07;101376.72;21086075;28;20217;-83
2023/10/06 08:41:51;;;;;;;5.88;1.42;;;;;;;13.96;55.02;101390.13;21073696;28;20609;-79
2023/10/06 08:51:54;;;;;;;6.22;1.38;;;;;;;14.43;53.72;101382.81;21074925;28;20595;-81
2023/10/06 09:02:03;;;;;;;6.10;2.03;;;;;;;14.43;53.60;101387.66;21076760;28;20582;-80
2023/10/06 09:12:07;;;;;;;5.00;1.75;;;;;;;14.82;52.48;101370.53;21049405;28;20229;-85
2023/10/06 09:22:09;;;;;;;5.00;1.60;;;;;;;14.71;54.10;101372.03;21066609;28;20203;-82
2023/10/06 09:32:22;;;;;;;10.30;2.22;;;;;;;14.53;53.20;101370.38;21020237;28;20226;-85
2023/10/06 09:42:27;;;;;;;4.07;1.55;;;;;;;15.27;51.19;101371.06;21019731;28;20256;-82
2023/10/06 09:52:31;;;;;;;4.75;1.77;;;;;;;15.45;51.44;101360.53;21023412;28;20222;-84
2023/10/06 10:02:34;;;;;;;7.25;1.80;;;;;;;15.57;50.39;101354.16;21026439;28;21201;-82
2023/10/06 10:12:48;;;;;;;3.47;2.08;;;;;;;16.11;49.92;101318.38;21070229;28;20227;-83
2023/10/06 10:22:52;;;;;;;5.57;1.95;;;;;;;15.25;50.36;101324.34;21055513;28;20239;-90
2023/10/06 10:32:58;;;;;;;5.13;2.28;;;;;;;16.35;48.08;101321.41;21080448;28;20514;-90
2023/10/06 10:43:05;;;;;;;6.45;2.13;;;;;;;15.66;50.00;101329.41;21076030;28;20198;-92
2023/10/06 10:53:14;;;;;;;4.30;1.90;;;;;;;15.19;50.45;101323.72;21097039;28;20646;-93
2023/10/06 11:03:16;;;;;;;8.25;2.78;;;;;;;15.35;50.84;101304.16;21088926;28;20190;-86
2023/10/06 11:13:19;;;;;;;7.40;2.17;;;;;;;15.26;51.51;101294.84;21098534;28;20650;-87
2023/10/06 11:23:23;;;;;;;10.20;2.55;;;;;;;15.15;52.21;101285.03;21083706;28;20238;-91
2023/10/06 11:33:27;;;;;;;8.38;2.45;;;;;;;16.26;50.44;101252.44;21082329;28;20222;-93
2023/10/06 11:43:30;;;;;;;5.32;1.77;;;;;;;16.01;50.01;101262.81;21076638;28;20198;-92
2023/10/06 11:53:33;;;;;;;8.43;1.90;;;;;;;16.41;47.67;101257.53;21063919;28;20254;-84
2023/10/06 12:03:39;;;;;;;5.55;1.73;;;;;;;16.94;45.18;101227.47;21088540;28;20214;-84
2023/10/06 12:13:43;;;;;;;3.20;1.55;;;;;;;16.72;45.49;101228.72;21058309;28;20651;-88
2023/10/06 12:23:47;;;;;;;5.97;1.48;;;;;;;16.71;45.71;101214.84;21051941;28;20206;-79
2023/10/06 12:33:54;;;;;;;5.18;1.77;;;;;;;16.07;47.42;101199.00;21077350;28;20273;-90
2023/10/06 12:44:04;;;;;;;7.97;2.03;;;;;;;16.90;45.74;101178.16;21052646;28;20617;-88
2023/10/06 12:54:09;;;;;;;5.07;2.05;;;;;;;17.19;45.29;101180.00;21085182;28;20233;-83
2023/10/06 13:04:13;;;;;;;6.82;1.80;;;;;;;17.27;43.87;101172.59;21070920;28;20198;-88
2023/10/06 13:14:18;;;;;;;5.53;1.73;;;;;;;17.61;43.15;101180.66;21046846;28;20686;-81
2023/10/06 13:24:20;;;;;;;5.40;1.70;;;;;;;17.85;42.97;101154.16;21059297;28;20260;-78
2023/10/06 13:34:24;;;;;;;5.50;2.00;;;;;;;17.36;44.20;101159.06;21063947;28;20707;-80
2023/10/06 13:44:25;;;;;;;4.63;1.65;;;;;;;17.86;42.75;101158.69;21078292;28;20388;-81
2023/10/06 13:54:28;;;;;;;6.20;1.75;;;;;;;17.26;43.96;101151.03;21050705;28;20223;-80
2023/10/06 14:04:30;;;;;;;6.38;2.33;;;;;;;17.13;45.53;101122.53;21037414;28;20199;-80
2023/10/06 14:14:54;;;;;;;6.10;1.42;;;;;;;17.51;44.69;101124.22;21027448;28;20237;-82
2023/10/06 14:24:56;;;;;;;5.72;1.55;;;;;;;17.33;44.72;101109.41;21054786;28;20648;-90
2023/10/06 14:35:12;;;;;;;7.97;1.88;;;;;;;17.05;45.83;101117.78;21046776;28;20218;-83
2023/10/06 14:55:39;;;;;;;4.78;1.98;;;;;;;17.79;46.61;101110.06;21038223;28;20543;-87
2023/10/06 15:05:41;;;;;;;5.90;1.90;;;;;;;17.69;45.25;101091.44;21050918;28;20226;-86
2023/10/06 15:15:45;;;;;;;6.38;1.85;;;;;;;16.99;47.75;101107.00;21053509;28;20223;-85
2023/10/06 15:25:55;;;;;;;6.32;2.08;;;;;;;17.37;46.94;101101.81;21062747;28;20655;-86
2023/10/06 15:36:00;;;;;;;11.02;2.92;;;;;;;16.77;48.61;101103.41;21076305;28;20218;-80
2023/10/06 15:46:03;;;;;;;5.80;2.10;;;;;;;17.54;46.43;101092.19;21082770;28;20190;-79
2023/10/06 15:56:08;;;;;;;5.30;1.80;;;;;;;17.57;46.43;101085.78;21079490;28;20218;-81
2023/10/06 16:06:11;;;;;;;7.60;1.88;;;;;;;16.84;47.63;101082.94;21076787;28;20187;-79
2023/10/06 16:16:15;;;;;;;7.82;2.35;;;;;;;17.07;46.77;101092.66;21079982;28;20309;-80
2023/10/06 16:26:18;;;;;;;7.03;2.33;;;;;;;17.18;47.04;101085.31;21062629;28;20199;-79
2023/10/06 16:36:22;;;;;;;8.82;2.50;;;;;;;17.05;47.66;101094.19;21073946;28;20263;-83
2023/10/06 16:46:25;;;;;;;5.40;2.17;;;;;;;16.77;48.91;101086.34;21078003;28;20199;-80
2023/10/06 16:56:28;;;;;;;10.80;2.72;;;;;;;16.19;50.24;101098.84;21081568;28;20576;-88
2023/10/06 17:06:31;;;;;;;7.60;2.20;;;;;;;16.16;50.87;101082.50;21055039;28;20560;-81
2023/10/06 17:16:37;;;;;;;6.95;2.13;;;;;;;15.75;51.92;101098.34;21082092;28;20227;-89
2023/10/06 17:26:39;;;;;;;8.13;2.50;;;;;;;15.90;51.50;101088.41;21058989;28;20198;-82
2023/10/06 17:36:42;;;;;;;6.80;2.38;;;;;;;16.02;51.84;101088.47;21071233;28;20230;-81
2023/10/06 17:46:45;;;;;;;6.97;2.65;;;;;;;15.87;52.52;101102.44;21068412;28;20605;-81
2023/10/06 17:56:50;;;;;;;6.90;2.43;;;;;;;15.72;53.19;101107.53;21056838;28;20291;-80
2023/10/06 18:06:52;;;;;;;5.47;2.30;;;;;;;15.36;54.28;101098.78;21042259;28;20742;-84
2023/10/06 18:16:55;;;;;;;10.10;2.33;;;;;;;15.10;56.39;101096.91;21064053;28;20225;-80
2023/10/06 18:26:57;;;;;;;9.73;2.38;;;;;;;15.05;56.29;101097.13;21073971;28;20205;-87
2023/10/06 18:37:00;;;;;;;8.20;2.30;;;;;;;14.92;56.79;101103.81;21071277;28;20553;-79
2023/10/06 18:47:02;;;;;;;5.13;3.10;;;;;;;15.19;55.30;101113.06;21059411;28;20209;-89
2023/10/06 18:57:06;;;;;;;6.88;2.13;;;;;;;15.28;55.06;101119.53;21054931;28;20227;-83
2023/10/06 19:07:09;;;;;;;4.10;2.17;;;;;;;14.73;56.53;101109.06;21066428;28;20203;-84
2023/10/06 19:17:12;;;;;;;5.97;2.50;;;;;;;15.30;55.51;101088.81;21063046;28;20222;-80
2023/10/06 19:27:14;;;;;;;7.32;2.83;;;;;;;14.88;56.75;101110.50;21067416;28;20215;-81
2023/10/06 19:37:17;;;;;;;7.75;2.70;;;;;;;14.87;56.83;101103.16;21057298;28;20221;-81
2023/10/06 19:47:25;;;;;;;5.78;2.65;;;;;;;15.05;56.39;101102.81;21056407;28;20198;-81
2023/10/06 19:57:28;;;;;;;4.85;1.83;;;;;;;15.22;56.21;101113.19;21073604;28;20239;-80
2023/10/06 20:07:33;;;;;;;5.45;1.98;;;;;;;14.91;56.98;101099.34;21087770;28;20288;-82
2023/10/06 20:17:35;;;;;;;7.18;2.60;;;;;;;15.03;56.84;101098.63;21071600;28;20229;-80
2023/10/06 20:27:38;;;;;;;5.30;2.25;;;;;;;14.75;57.99;101095.38;21076128;28;20203;-80
2023/10/06 20:37:42;;;;;;;7.13;2.50;;;;;;;14.73;58.05;101092.06;21081038;28;20589;-81
2023/10/06 20:47:44;;;;;;;6.90;2.22;;;;;;;14.27;59.68;101112.69;21091558;28;20206;-83
2023/10/06 20:57:48;;;;;;;5.07;2.47;;;;;;;15.30;55.81;101094.50;21080298;28;20535;-85
2023/10/06 21:07:49;;;;;;;5.32;2.38;;;;;;;14.16;59.39;101114.16;21088391;28;20272;-80
2023/10/06 21:17:54;;;;;;;5.15;1.85;;;;;;;14.61;57.87;101106.09;21078861;28;20490;-85
2023/10/06 21:27:55;;;;;;;5.70;2.38;;;;;;;14.51;58.76;101124.28;21090335;28;20214;-81
2023/10/06 21:37:58;;;;;;;5.72;2.03;;;;;;;14.41;59.10;101115.31;21079602;28;20217;-80
2023/10/06 21:48:00;;;;;;;6.22;2.70;;;;;;;14.37;59.42;101109.50;21083099;28;20571;-82
2023/10/06 21:58:04;;;;;;;5.95;2.30;;;;;;;14.32;59.63;101115.31;21082400;28;20795;-80
2023/10/06 22:08:06;;;;;;;4.38;2.33;;;;;;;14.37;59.52;101107.50;21065266;28;20222;-81
2023/10/06 22:18:13;;;;;;;5.47;2.30;;;;;;;14.03;60.74;101104.69;21072065;28;20480;-79
2023/10/06 22:28:14;;;;;;;5.47;2.50;;;;;;;13.87;60.97;101087.38;21074069;28;20222;-79
2023/10/06 22:38:17;;;;;;;5.35;2.50;;;;;;;14.10;60.53;101085.19;21072834;28;20483;-80
2023/10/06 22:48:19;;;;;;;5.93;2.85;;;;;;;13.99;60.72;101073.38;21060710;28;20236;-87
2023/10/06 22:58:23;;;;;;;6.80;2.60;;;;;;;13.94;60.11;101065.06;21076058;28;20241;-79
2023/10/06 23:08:25;;;;;;;10.15;2.75;;;;;;;14.25;58.30;101064.88;21066272;28;20662;-80
2023/10/06 23:18:30;;;;;;;7.57;2.08;;;;;;;14.10;57.73;101068.19;21064664;28;20484;-79
2023/10/06 23:28:32;;;;;;;10.38;3.20;;;;;;;14.31;56.03;101074.84;21056770;28;20260;-84
2023/10/06 23:38:36;;;;;;;6.35;2.70;;;;;;;14.05;57.08;101057.03;21052193;28;20247;-86
2023/10/06 23:48:37;;;;;;;7.47;2.20;;;;;;;13.86;57.73;101045.25;21077386;28;20232;-81
2023/10/06 23:58:40;;;;;;;4.10;1.95;;;;;;;13.57;57.97;101060.91;21071844;28;20222;-79
